Aviation Digital Data Service (ADDS)

Output produced by METARs form (0645 UTC 30 March 2017)
found at http://aviationweather.gov/adds/metars/
 
KPVD 300520Z 3006/3106 34008KT P6SM SKC 
     FM310200 VRB03KT P6SM BKN110